createdAt,value
2022-08-04T00:03:27.609Z,0
2022-08-04T00:18:27.551Z,0
2022-08-04T00:33:27.550Z,0
2022-08-04T00:48:27.488Z,0
2022-08-04T01:03:27.461Z,0
2022-08-04T01:18:27.442Z,2
2022-08-04T01:33:27.411Z,0
2022-08-04T01:48:27.390Z,0
2022-08-04T02:04:20.426Z,0
2022-08-04T02:18:27.329Z,0
2022-08-04T02:48:30.184Z,0
2022-08-04T03:03:27.248Z,0
2022-08-04T03:18:27.209Z,0
2022-08-04T03:33:27.220Z,0
2022-08-04T03:48:27.146Z,0
2022-08-04T04:03:29.073Z,0
2022-08-04T04:18:27.101Z,0
2022-08-04T04:33:27.099Z,0
2022-08-04T04:48:27.052Z,0
2022-08-04T05:03:27.010Z,0
2022-08-04T05:18:26.983Z,0
2022-08-04T05:33:29.160Z,0
2022-08-04T05:48:26.926Z,0
2022-08-04T06:03:26.894Z,0
2022-08-04T06:19:56.991Z,0
2022-08-04T06:33:26.869Z,0
2022-08-04T06:48:33.164Z,0
2022-08-04T07:03:26.805Z,0
2022-08-04T07:18:26.765Z,0
2022-08-04T07:33:26.757Z,0
2022-08-04T07:48:26.702Z,0
2022-08-04T08:03:26.751Z,0
2022-08-04T08:18:26.655Z,0
2022-08-04T08:33:26.665Z,0
2022-08-04T08:48:26.605Z,0
2022-08-04T09:03:26.607Z,0
2022-08-04T09:18:26.568Z,0
2022-08-04T09:33:44.274Z,2
2022-08-04T09:48:26.515Z,3
2022-08-04T10:03:26.560Z,1
2022-08-04T10:18:26.522Z,0
2022-08-04T10:33:26.471Z,0
2022-08-04T10:48:34.705Z,10
2022-08-04T11:03:26.514Z,100
2022-08-04T11:18:26.390Z,201
2022-08-04T11:33:26.380Z,30
2022-08-04T11:48:26.314Z,50
2022-08-04T12:03:26.316Z,219
2022-08-04T12:18:26.258Z,166
2022-08-04T12:34:03.067Z,224
2022-08-04T12:48:26.204Z,45
2022-08-04T13:03:26.217Z,15
2022-08-04T13:18:29.609Z,60
2022-08-04T13:33:26.163Z,189
2022-08-04T13:48:32.433Z,121
2022-08-04T14:03:26.115Z,20
2022-08-04T14:18:26.054Z,27
2022-08-04T14:34:01.960Z,235
2022-08-04T14:48:26.006Z,120
2022-08-04T15:03:25.972Z,242
2022-08-04T15:18:25.949Z,36
2022-08-04T15:33:28.938Z,82
2022-08-04T15:48:25.894Z,113
2022-08-04T16:03:58.020Z,66
2022-08-04T16:18:27.121Z,31
2022-08-04T16:33:25.853Z,17
2022-08-04T16:48:27.205Z,0
2022-08-04T17:03:25.790Z,62
2022-08-04T17:18:25.740Z,111
2022-08-04T17:33:25.745Z,183
2022-08-04T17:48:25.677Z,166
2022-08-04T18:03:30.011Z,99
2022-08-04T18:18:25.922Z,221
2022-08-04T18:33:40.744Z,100
2022-08-04T18:48:36.106Z,160
2022-08-04T19:03:25.585Z,130
2022-08-04T19:18:25.520Z,54
2022-08-04T19:33:25.655Z,2
2022-08-04T19:48:30.161Z,4
2022-08-04T20:18:36.061Z,0
2022-08-04T20:33:25.423Z,0
2022-08-04T20:48:25.791Z,0
2022-08-04T21:03:49.896Z,0
2022-08-04T21:33:48.177Z,0
2022-08-04T21:48:27.443Z,0
2022-08-04T22:03:52.516Z,0
2022-08-04T22:18:27.678Z,0
2022-08-04T22:33:54.802Z,0
2022-08-04T22:48:27.311Z,0
2022-08-04T23:03:37.239Z,0
2022-08-04T23:18:26.781Z,0
2022-08-04T23:33:25.074Z,0
2022-08-04T23:48:25.015Z,5
